sensor_id;sensor_type;location;lat;lon;timestamp;P1;durP1;ratioP1;P2;durP2;ratioP2
76807;SDS011;65758;45.458;11.062;2024-03-08T00:01:52;4.10;;;3.00;;
76807;SDS011;65758;45.458;11.062;2024-03-08T00:08:33;3.40;;;2.90;;
76807;SDS011;65758;45.458;11.062;2024-03-08T00:11:00;5.20;;;3.40;;
76807;SDS011;65758;45.458;11.062;2024-03-08T00:13:27;3.00;;;2.40;;
76807;SDS011;65758;45.458;11.062;2024-03-08T00:15:54;4.10;;;3.20;;
76807;SDS011;65758;45.458;11.062;2024-03-08T00:18:24;4.10;;;3.20;;
76807;SDS011;65758;45.458;11.062;2024-03-08T00:25:10;3.80;;;2.90;;
76807;SDS011;65758;45.458;11.062;2024-03-08T00:31:45;4.00;;;2.60;;
76807;SDS011;65758;45.458;11.062;2024-03-08T00:34:12;4.40;;;3.40;;
76807;SDS011;65758;45.458;11.062;2024-03-08T00:40:58;4.20;;;2.80;;
76807;SDS011;65758;45.458;11.062;2024-03-08T00:43:25;3.30;;;2.50;;
76807;SDS011;65758;45.458;11.062;2024-03-08T00:45:52;4.40;;;2.70;;
76807;SDS011;65758;45.458;11.062;2024-03-08T00:52:46;3.60;;;2.90;;
76807;SDS011;65758;45.458;11.062;2024-03-08T00:55:13;3.80;;;3.10;;
76807;SDS011;65758;45.458;11.062;2024-03-08T00:57:40;6.00;;;3.90;;
76807;SDS011;65758;45.458;11.062;2024-03-08T01:00:07;3.70;;;2.70;;
76807;SDS011;65758;45.458;11.062;2024-03-08T01:02:39;4.70;;;3.50;;
76807;SDS011;65758;45.458;11.062;2024-03-08T01:09:26;7.70;;;3.70;;
76807;SDS011;65758;45.458;11.062;2024-03-08T01:11:54;4.60;;;3.70;;
76807;SDS011;65758;45.458;11.062;2024-03-08T01:18:43;5.50;;;3.70;;
76807;SDS011;65758;45.458;11.062;2024-03-08T01:21:10;5.80;;;4.10;;
76807;SDS011;65758;45.458;11.062;2024-03-08T01:27:58;6.40;;;4.10;;
76807;SDS011;65758;45.458;11.062;2024-03-08T01:30:25;3.60;;;2.80;;
76807;SDS011;65758;45.458;11.062;2024-03-08T01:37:12;3.90;;;3.00;;
76807;SDS011;65758;45.458;11.062;2024-03-08T01:39:41;4.60;;;3.70;;
76807;SDS011;65758;45.458;11.062;2024-03-08T01:46:33;6.20;;;4.20;;
76807;SDS011;65758;45.458;11.062;2024-03-08T01:49:01;5.10;;;3.70;;
76807;SDS011;65758;45.458;11.062;2024-03-08T01:51:29;3.90;;;3.20;;
76807;SDS011;65758;45.458;11.062;2024-03-08T01:53:58;5.50;;;4.00;;
76807;SDS011;65758;45.458;11.062;2024-03-08T01:56:28;5.00;;;3.50;;
76807;SDS011;65758;45.458;11.062;2024-03-08T01:58:58;5.30;;;4.10;;
76807;SDS011;65758;45.458;11.062;2024-03-08T02:01:26;5.70;;;3.70;;
76807;SDS011;65758;45.458;11.062;2024-03-08T02:03:55;4.00;;;3.10;;
76807;SDS011;65758;45.458;11.062;2024-03-08T02:06:22;4.30;;;3.30;;
76807;SDS011;65758;45.458;11.062;2024-03-08T02:08:49;5.60;;;3.70;;
76807;SDS011;65758;45.458;11.062;2024-03-08T02:11:16;4.10;;;2.50;;
76807;SDS011;65758;45.458;11.062;2024-03-08T02:13:44;5.60;;;3.90;;
76807;SDS011;65758;45.458;11.062;2024-03-08T02:16:11;6.00;;;3.80;;
76807;SDS011;65758;45.458;11.062;2024-03-08T02:18:38;4.20;;;3.60;;
76807;SDS011;65758;45.458;11.062;2024-03-08T02:21:06;4.60;;;3.50;;
76807;SDS011;65758;45.458;11.062;2024-03-08T02:23:35;5.30;;;3.70;;
76807;SDS011;65758;45.458;11.062;2024-03-08T02:30:17;4.60;;;3.00;;
76807;SDS011;65758;45.458;11.062;2024-03-08T02:32:44;5.80;;;3.70;;
76807;SDS011;65758;45.458;11.062;2024-03-08T02:35:11;5.80;;;3.50;;
76807;SDS011;65758;45.458;11.062;2024-03-08T02:37:38;6.10;;;4.00;;
76807;SDS011;65758;45.458;11.062;2024-03-08T02:40:05;4.70;;;3.60;;
76807;SDS011;65758;45.458;11.062;2024-03-08T02:42:34;4.50;;;3.70;;
76807;SDS011;65758;45.458;11.062;2024-03-08T02:45:00;4.40;;;3.40;;
76807;SDS011;65758;45.458;11.062;2024-03-08T02:47:27;5.50;;;3.90;;
76807;SDS011;65758;45.458;11.062;2024-03-08T02:54:11;5.90;;;3.90;;
76807;SDS011;65758;45.458;11.062;2024-03-08T02:56:38;4.60;;;3.70;;
76807;SDS011;65758;45.458;11.062;2024-03-08T02:59:05;4.80;;;2.50;;
76807;SDS011;65758;45.458;11.062;2024-03-08T03:01:33;5.60;;;4.00;;
76807;SDS011;65758;45.458;11.062;2024-03-08T03:04:00;4.40;;;3.00;;
76807;SDS011;65758;45.458;11.062;2024-03-08T03:06:26;4.70;;;3.40;;
76807;SDS011;65758;45.458;11.062;2024-03-08T03:13:20;3.70;;;3.00;;
76807;SDS011;65758;45.458;11.062;2024-03-08T03:15:47;4.90;;;3.70;;
76807;SDS011;65758;45.458;11.062;2024-03-08T03:18:14;2.80;;;2.30;;
76807;SDS011;65758;45.458;11.062;2024-03-08T03:20:42;3.90;;;3.30;;
76807;SDS011;65758;45.458;11.062;2024-03-08T03:23:10;3.60;;;2.90;;
76807;SDS011;65758;45.458;11.062;2024-03-08T03:25:41;4.20;;;2.80;;
76807;SDS011;65758;45.458;11.062;2024-03-08T03:32:22;3.80;;;2.90;;
76807;SDS011;65758;45.458;11.062;2024-03-08T03:34:50;3.60;;;2.70;;
76807;SDS011;65758;45.458;11.062;2024-03-08T03:41:33;4.60;;;2.90;;
76807;SDS011;65758;45.458;11.062;2024-03-08T03:44:01;2.80;;;2.30;;
76807;SDS011;65758;45.458;11.062;2024-03-08T03:46:27;3.40;;;3.00;;
76807;SDS011;65758;45.458;11.062;2024-03-08T03:53:15;3.70;;;3.10;;
76807;SDS011;65758;45.458;11.062;2024-03-08T03:59:56;3.80;;;2.20;;
76807;SDS011;65758;45.458;11.062;2024-03-08T04:02:26;2.90;;;2.10;;
76807;SDS011;65758;45.458;11.062;2024-03-08T04:04:53;3.70;;;2.50;;
76807;SDS011;65758;45.458;11.062;2024-03-08T04:07:21;4.00;;;2.80;;
76807;SDS011;65758;45.458;11.062;2024-03-08T04:09:48;2.80;;;2.20;;
76807;SDS011;65758;45.458;11.062;2024-03-08T04:12:14;2.30;;;1.70;;
76807;SDS011;65758;45.458;11.062;2024-03-08T04:18:56;3.30;;;2.80;;
76807;SDS011;65758;45.458;11.062;2024-03-08T04:21:24;4.80;;;3.00;;
76807;SDS011;65758;45.458;11.062;2024-03-08T04:23:51;2.40;;;2.20;;
76807;SDS011;65758;45.458;11.062;2024-03-08T04:26:18;3.30;;;2.40;;
76807;SDS011;65758;45.458;11.062;2024-03-08T04:32:59;3.60;;;3.00;;
76807;SDS011;65758;45.458;11.062;2024-03-08T04:35:27;3.30;;;2.70;;
76807;SDS011;65758;45.458;11.062;2024-03-08T04:37:54;4.00;;;2.90;;
76807;SDS011;65758;45.458;11.062;2024-03-08T04:40:21;2.90;;;2.50;;
76807;SDS011;65758;45.458;11.062;2024-03-08T04:42:47;2.80;;;2.50;;
76807;SDS011;65758;45.458;11.062;2024-03-08T04:45:17;2.30;;;2.10;;
76807;SDS011;65758;45.458;11.062;2024-03-08T04:47:44;3.10;;;2.30;;
76807;SDS011;65758;45.458;11.062;2024-03-08T04:50:11;2.90;;;2.60;;
76807;SDS011;65758;45.458;11.062;2024-03-08T04:52:38;3.70;;;2.40;;
76807;SDS011;65758;45.458;11.062;2024-03-08T04:57:33;3.10;;;2.30;;
76807;SDS011;65758;45.458;11.062;2024-03-08T04:59:59;3.50;;;3.20;;
76807;SDS011;65758;45.458;11.062;2024-03-08T05:02:27;4.00;;;3.00;;
76807;SDS011;65758;45.458;11.062;2024-03-08T05:09:14;4.00;;;2.50;;
76807;SDS011;65758;45.458;11.062;2024-03-08T05:11:43;3.40;;;3.10;;
76807;SDS011;65758;45.458;11.062;2024-03-08T05:14:11;3.10;;;2.40;;
76807;SDS011;65758;45.458;11.062;2024-03-08T05:21:00;2.60;;;2.20;;
76807;SDS011;65758;45.458;11.062;2024-03-08T05:27:51;2.40;;;2.20;;
76807;SDS011;65758;45.458;11.062;2024-03-08T05:30:18;3.30;;;2.50;;
76807;SDS011;65758;45.458;11.062;2024-03-08T05:37:06;3.00;;;2.50;;
76807;SDS011;65758;45.458;11.062;2024-03-08T05:43:48;2.70;;;2.30;;
76807;SDS011;65758;45.458;11.062;2024-03-08T05:46:17;2.40;;;2.20;;
76807;SDS011;65758;45.458;11.062;2024-03-08T05:48:44;2.90;;;2.30;;
76807;SDS011;65758;45.458;11.062;2024-03-08T05:51:11;3.70;;;2.90;;
76807;SDS011;65758;45.458;11.062;2024-03-08T05:57:59;3.00;;;2.30;;
76807;SDS011;65758;45.458;11.062;2024-03-08T06:00:27;4.30;;;2.90;;
76807;SDS011;65758;45.458;11.062;2024-03-08T06:02:54;3.10;;;2.80;;
76807;SDS011;65758;45.458;11.062;2024-03-08T06:05:22;3.90;;;2.70;;
76807;SDS011;65758;45.458;11.062;2024-03-08T06:07:51;3.50;;;2.80;;
76807;SDS011;65758;45.458;11.062;2024-03-08T06:10:19;3.10;;;2.70;;
76807;SDS011;65758;45.458;11.062;2024-03-08T06:12:47;2.60;;;2.40;;
76807;SDS011;65758;45.458;11.062;2024-03-08T06:15:14;4.00;;;3.10;;
76807;SDS011;65758;45.458;11.062;2024-03-08T06:17:42;3.40;;;2.70;;
76807;SDS011;65758;45.458;11.062;2024-03-08T06:20:09;3.30;;;2.90;;
76807;SDS011;65758;45.458;11.062;2024-03-08T06:22:40;4.00;;;2.60;;
76807;SDS011;65758;45.458;11.062;2024-03-08T06:25:08;2.30;;;2.10;;
76807;SDS011;65758;45.458;11.062;2024-03-08T06:27:35;3.90;;;3.00;;
76807;SDS011;65758;45.458;11.062;2024-03-08T06:30:02;4.10;;;3.00;;
76807;SDS011;65758;45.458;11.062;2024-03-08T06:32:31;3.60;;;2.80;;
76807;SDS011;65758;45.458;11.062;2024-03-08T06:35:03;5.00;;;3.60;;
76807;SDS011;65758;45.458;11.062;2024-03-08T06:37:33;3.30;;;2.70;;
76807;SDS011;65758;45.458;11.062;2024-03-08T06:40:00;3.90;;;3.30;;
76807;SDS011;65758;45.458;11.062;2024-03-08T06:42:29;5.70;;;3.20;;
76807;SDS011;65758;45.458;11.062;2024-03-08T06:45:01;3.40;;;2.70;;
76807;SDS011;65758;45.458;11.062;2024-03-08T06:47:32;4.90;;;3.50;;
76807;SDS011;65758;45.458;11.062;2024-03-08T06:50:00;3.70;;;2.50;;
76807;SDS011;65758;45.458;11.062;2024-03-08T06:52:27;3.20;;;2.90;;
76807;SDS011;65758;45.458;11.062;2024-03-08T06:54:54;2.80;;;2.10;;
76807;SDS011;65758;45.458;11.062;2024-03-08T06:57:21;4.30;;;3.10;;
76807;SDS011;65758;45.458;11.062;2024-03-08T06:59:50;3.70;;;2.90;;
76807;SDS011;65758;45.458;11.062;2024-03-08T07:02:19;6.20;;;3.60;;
76807;SDS011;65758;45.458;11.062;2024-03-08T07:04:45;4.20;;;2.60;;
76807;SDS011;65758;45.458;11.062;2024-03-08T07:07:12;3.90;;;3.20;;
76807;SDS011;65758;45.458;11.062;2024-03-08T07:09:39;5.20;;;3.60;;
76807;SDS011;65758;45.458;11.062;2024-03-08T07:12:09;5.60;;;3.80;;
76807;SDS011;65758;45.458;11.062;2024-03-08T07:14:36;3.70;;;3.20;;
76807;SDS011;65758;45.458;11.062;2024-03-08T07:17:07;6.80;;;3.70;;
76807;SDS011;65758;45.458;11.062;2024-03-08T07:19:38;5.60;;;4.10;;
76807;SDS011;65758;45.458;11.062;2024-03-08T07:22:05;5.10;;;3.90;;
76807;SDS011;65758;45.458;11.062;2024-03-08T07:24:35;2.70;;;2.30;;
76807;SDS011;65758;45.458;11.062;2024-03-08T07:27:25;3.80;;;3.10;;
76807;SDS011;65758;45.458;11.062;2024-03-08T07:29:52;4.10;;;2.50;;
76807;SDS011;65758;45.458;11.062;2024-03-08T07:32:34;4.10;;;2.80;;
76807;SDS011;65758;45.458;11.062;2024-03-08T07:35:01;4.20;;;3.40;;
76807;SDS011;65758;45.458;11.062;2024-03-08T07:37:30;4.30;;;3.50;;
76807;SDS011;65758;45.458;11.062;2024-03-08T07:39:58;3.40;;;2.90;;
76807;SDS011;65758;45.458;11.062;2024-03-08T07:42:25;5.00;;;3.60;;
76807;SDS011;65758;45.458;11.062;2024-03-08T07:44:51;3.90;;;3.50;;
76807;SDS011;65758;45.458;11.062;2024-03-08T07:47:19;7.20;;;3.70;;
76807;SDS011;65758;45.458;11.062;2024-03-08T07:49:50;4.70;;;4.00;;
76807;SDS011;65758;45.458;11.062;2024-03-08T07:52:17;3.80;;;2.90;;
76807;SDS011;65758;45.458;11.062;2024-03-08T07:54:44;3.90;;;2.60;;
76807;SDS011;65758;45.458;11.062;2024-03-08T08:01:43;5.20;;;3.30;;
76807;SDS011;65758;45.458;11.062;2024-03-08T08:04:10;3.30;;;2.80;;
76807;SDS011;65758;45.458;11.062;2024-03-08T08:06:39;4.80;;;3.60;;
76807;SDS011;65758;45.458;11.062;2024-03-08T08:09:07;4.50;;;3.30;;
76807;SDS011;65758;45.458;11.062;2024-03-08T08:11:41;5.20;;;3.60;;
76807;SDS011;65758;45.458;11.062;2024-03-08T08:14:10;4.20;;;3.20;;
76807;SDS011;65758;45.458;11.062;2024-03-08T08:16:36;5.40;;;4.40;;
76807;SDS011;65758;45.458;11.062;2024-03-08T08:19:04;5.10;;;3.60;;
76807;SDS011;65758;45.458;11.062;2024-03-08T08:21:34;4.50;;;3.90;;
76807;SDS011;65758;45.458;11.062;2024-03-08T08:24:03;4.40;;;3.70;;
76807;SDS011;65758;45.458;11.062;2024-03-08T08:26:30;5.60;;;4.10;;
76807;SDS011;65758;45.458;11.062;2024-03-08T08:29:02;5.50;;;4.20;;
76807;SDS011;65758;45.458;11.062;2024-03-08T08:31:29;5.20;;;4.30;;
76807;SDS011;65758;45.458;11.062;2024-03-08T08:33:55;4.20;;;3.40;;
76807;SDS011;65758;45.458;11.062;2024-03-08T08:36:25;6.20;;;4.20;;
76807;SDS011;65758;45.458;11.062;2024-03-08T08:38:52;4.90;;;4.10;;
76807;SDS011;65758;45.458;11.062;2024-03-08T08:41:23;3.90;;;3.00;;
76807;SDS011;65758;45.458;11.062;2024-03-08T08:43:50;5.60;;;4.50;;
76807;SDS011;65758;45.458;11.062;2024-03-08T08:46:33;5.00;;;4.30;;
76807;SDS011;65758;45.458;11.062;2024-03-08T08:49:07;4.60;;;3.60;;
76807;SDS011;65758;45.458;11.062;2024-03-08T08:51:37;3.90;;;3.30;;
76807;SDS011;65758;45.458;11.062;2024-03-08T08:54:05;4.30;;;3.50;;
76807;SDS011;65758;45.458;11.062;2024-03-08T08:56:39;5.40;;;4.00;;
76807;SDS011;65758;45.458;11.062;2024-03-08T08:59:05;6.40;;;4.60;;
76807;SDS011;65758;45.458;11.062;2024-03-08T09:01:33;4.30;;;3.60;;
76807;SDS011;65758;45.458;11.062;2024-03-08T09:04:00;5.30;;;4.10;;
76807;SDS011;65758;45.458;11.062;2024-03-08T09:06:27;5.50;;;4.70;;
76807;SDS011;65758;45.458;11.062;2024-03-08T09:08:54;6.50;;;4.50;;
76807;SDS011;65758;45.458;11.062;2024-03-08T09:11:20;4.20;;;3.50;;
76807;SDS011;65758;45.458;11.062;2024-03-08T09:13:48;5.10;;;3.90;;
76807;SDS011;65758;45.458;11.062;2024-03-08T09:16:15;4.20;;;3.40;;
76807;SDS011;65758;45.458;11.062;2024-03-08T09:18:42;4.70;;;4.20;;
76807;SDS011;65758;45.458;11.062;2024-03-08T09:21:09;4.00;;;3.10;;
76807;SDS011;65758;45.458;11.062;2024-03-08T09:23:36;5.20;;;3.40;;
76807;SDS011;65758;45.458;11.062;2024-03-08T09:26:03;4.50;;;3.50;;
76807;SDS011;65758;45.458;11.062;2024-03-08T09:28:36;3.30;;;2.80;;
76807;SDS011;65758;45.458;11.062;2024-03-08T09:31:03;3.30;;;2.90;;
76807;SDS011;65758;45.458;11.062;2024-03-08T09:33:34;3.90;;;3.30;;
76807;SDS011;65758;45.458;11.062;2024-03-08T09:36:02;5.60;;;3.90;;
76807;SDS011;65758;45.458;11.062;2024-03-08T09:38:30;4.90;;;3.20;;
76807;SDS011;65758;45.458;11.062;2024-03-08T09:40:57;5.10;;;4.10;;
76807;SDS011;65758;45.458;11.062;2024-03-08T09:43:24;4.60;;;3.90;;
76807;SDS011;65758;45.458;11.062;2024-03-08T09:45:51;4.00;;;3.30;;
76807;SDS011;65758;45.458;11.062;2024-03-08T09:48:19;4.90;;;3.70;;
76807;SDS011;65758;45.458;11.062;2024-03-08T09:50:46;3.80;;;3.00;;
76807;SDS011;65758;45.458;11.062;2024-03-08T09:53:14;4.00;;;3.70;;
76807;SDS011;65758;45.458;11.062;2024-03-08T09:55:43;5.60;;;4.20;;
76807;SDS011;65758;45.458;11.062;2024-03-08T09:58:14;4.60;;;3.90;;
76807;SDS011;65758;45.458;11.062;2024-03-08T10:01:00;4.20;;;3.40;;
76807;SDS011;65758;45.458;11.062;2024-03-08T10:03:31;5.10;;;4.30;;
76807;SDS011;65758;45.458;11.062;2024-03-08T10:05:59;4.70;;;3.80;;
76807;SDS011;65758;45.458;11.062;2024-03-08T10:08:29;5.00;;;4.30;;
76807;SDS011;65758;45.458;11.062;2024-03-08T10:10:56;5.10;;;4.00;;
76807;SDS011;65758;45.458;11.062;2024-03-08T10:13:27;5.80;;;4.30;;
76807;SDS011;65758;45.458;11.062;2024-03-08T10:15:54;4.40;;;3.80;;
76807;SDS011;65758;45.458;11.062;2024-03-08T10:18:21;4.50;;;4.10;;
76807;SDS011;65758;45.458;11.062;2024-03-08T10:21:05;4.70;;;3.90;;
76807;SDS011;65758;45.458;11.062;2024-03-08T10:23:34;4.90;;;3.80;;
76807;SDS011;65758;45.458;11.062;2024-03-08T10:26:16;5.00;;;3.90;;
76807;SDS011;65758;45.458;11.062;2024-03-08T10:28:45;5.80;;;4.50;;
76807;SDS011;65758;45.458;11.062;2024-03-08T10:31:16;4.80;;;3.00;;
76807;SDS011;65758;45.458;11.062;2024-03-08T10:33:45;5.30;;;3.90;;
76807;SDS011;65758;45.458;11.062;2024-03-08T10:36:13;5.20;;;3.90;;
76807;SDS011;65758;45.458;11.062;2024-03-08T10:38:42;5.10;;;4.10;;
76807;SDS011;65758;45.458;11.062;2024-03-08T10:41:14;4.20;;;3.20;;
76807;SDS011;65758;45.458;11.062;2024-03-08T10:49:23;5.30;;;4.30;;
76807;SDS011;65758;45.458;11.062;2024-03-08T10:51:57;4.00;;;3.20;;
76807;SDS011;65758;45.458;11.062;2024-03-08T10:54:25;5.20;;;3.70;;
76807;SDS011;65758;45.458;11.062;2024-03-08T10:56:53;5.00;;;4.00;;
76807;SDS011;65758;45.458;11.062;2024-03-08T10:59:21;5.80;;;3.90;;
76807;SDS011;65758;45.458;11.062;2024-03-08T11:01:50;6.20;;;4.30;;
76807;SDS011;65758;45.458;11.062;2024-03-08T11:04:17;4.70;;;4.00;;
76807;SDS011;65758;45.458;11.062;2024-03-08T11:06:50;5.10;;;3.60;;
76807;SDS011;65758;45.458;11.062;2024-03-08T11:09:30;5.50;;;3.70;;
76807;SDS011;65758;45.458;11.062;2024-03-08T11:14:49;5.10;;;4.10;;
76807;SDS011;65758;45.458;11.062;2024-03-08T11:17:20;5.20;;;4.70;;
76807;SDS011;65758;45.458;11.062;2024-03-08T11:19:52;7.10;;;4.00;;
76807;SDS011;65758;45.458;11.062;2024-03-08T11:22:25;7.10;;;4.10;;
76807;SDS011;65758;45.458;11.062;2024-03-08T11:25:03;7.10;;;4.10;;
76807;SDS011;65758;45.458;11.062;2024-03-08T11:27:37;4.90;;;3.90;;
76807;SDS011;65758;45.458;11.062;2024-03-08T11:32:44;4.60;;;3.60;;
76807;SDS011;65758;45.458;11.062;2024-03-08T11:35:20;5.50;;;4.00;;
76807;SDS011;65758;45.458;11.062;2024-03-08T11:37:50;6.30;;;4.10;;
76807;SDS011;65758;45.458;11.062;2024-03-08T11:40:17;5.00;;;4.10;;
76807;SDS011;65758;45.458;11.062;2024-03-08T11:42:47;4.80;;;3.80;;
76807;SDS011;65758;45.458;11.062;2024-03-08T11:45:15;4.60;;;3.70;;
76807;SDS011;65758;45.458;11.062;2024-03-08T11:47:44;3.30;;;2.80;;
76807;SDS011;65758;45.458;11.062;2024-03-08T11:50:16;4.70;;;3.80;;
76807;SDS011;65758;45.458;11.062;2024-03-08T11:52:46;4.20;;;3.80;;
76807;SDS011;65758;45.458;11.062;2024-03-08T11:55:13;5.90;;;3.80;;
76807;SDS011;65758;45.458;11.062;2024-03-08T11:57:41;3.50;;;3.20;;
76807;SDS011;65758;45.458;11.062;2024-03-08T12:00:18;4.60;;;4.10;;
76807;SDS011;65758;45.458;11.062;2024-03-08T12:03:02;3.60;;;3.00;;
76807;SDS011;65758;45.458;11.062;2024-03-08T12:05:31;4.90;;;3.70;;
76807;SDS011;65758;45.458;11.062;2024-03-08T12:08:00;4.50;;;3.40;;
76807;SDS011;65758;45.458;11.062;2024-03-08T12:10:28;4.50;;;3.20;;
76807;SDS011;65758;45.458;11.062;2024-03-08T12:12:57;3.90;;;3.50;;
76807;SDS011;65758;45.458;11.062;2024-03-08T12:15:29;4.10;;;3.30;;
76807;SDS011;65758;45.458;11.062;2024-03-08T12:18:00;4.00;;;3.40;;
76807;SDS011;65758;45.458;11.062;2024-03-08T12:20:28;3.50;;;2.90;;
76807;SDS011;65758;45.458;11.062;2024-03-08T12:22:59;3.30;;;2.90;;
76807;SDS011;65758;45.458;11.062;2024-03-08T12:25:27;3.50;;;3.20;;
76807;SDS011;65758;45.458;11.062;2024-03-08T12:32:13;3.30;;;2.80;;
76807;SDS011;65758;45.458;11.062;2024-03-08T12:34:41;3.60;;;2.90;;
76807;SDS011;65758;45.458;11.062;2024-03-08T12:37:10;2.90;;;2.40;;
76807;SDS011;65758;45.458;11.062;2024-03-08T12:39:40;4.00;;;3.00;;
76807;SDS011;65758;45.458;11.062;2024-03-08T12:42:13;4.70;;;3.50;;
76807;SDS011;65758;45.458;11.062;2024-03-08T12:44:41;3.40;;;2.90;;
76807;SDS011;65758;45.458;11.062;2024-03-08T12:47:12;4.00;;;3.30;;
76807;SDS011;65758;45.458;11.062;2024-03-08T12:49:40;3.00;;;2.70;;
76807;SDS011;65758;45.458;11.062;2024-03-08T12:56:34;2.50;;;2.20;;
76807;SDS011;65758;45.458;11.062;2024-03-08T13:03:24;3.20;;;2.70;;
76807;SDS011;65758;45.458;11.062;2024-03-08T13:05:51;3.90;;;3.00;;
76807;SDS011;65758;45.458;11.062;2024-03-08T13:08:18;3.30;;;2.90;;
76807;SDS011;65758;45.458;11.062;2024-03-08T13:10:45;3.80;;;3.40;;
76807;SDS011;65758;45.458;11.062;2024-03-08T13:13:12;3.40;;;3.10;;
76807;SDS011;65758;45.458;11.062;2024-03-08T13:15:44;3.30;;;2.80;;
76807;SDS011;65758;45.458;11.062;2024-03-08T13:18:10;3.20;;;2.70;;
76807;SDS011;65758;45.458;11.062;2024-03-08T13:20:38;3.60;;;3.20;;
76807;SDS011;65758;45.458;11.062;2024-03-08T13:23:13;3.30;;;2.80;;
76807;SDS011;65758;45.458;11.062;2024-03-08T13:25:40;3.70;;;3.00;;
76807;SDS011;65758;45.458;11.062;2024-03-08T13:28:07;4.00;;;3.20;;
76807;SDS011;65758;45.458;11.062;2024-03-08T13:30:35;3.10;;;2.30;;
76807;SDS011;65758;45.458;11.062;2024-03-08T13:33:03;3.90;;;3.10;;
76807;SDS011;65758;45.458;11.062;2024-03-08T13:39:51;3.60;;;3.20;;
76807;SDS011;65758;45.458;11.062;2024-03-08T13:42:19;5.30;;;3.40;;
76807;SDS011;65758;45.458;11.062;2024-03-08T13:44:46;4.20;;;2.70;;
76807;SDS011;65758;45.458;11.062;2024-03-08T13:47:14;4.30;;;3.50;;
76807;SDS011;65758;45.458;11.062;2024-03-08T13:49:44;3.70;;;3.30;;
76807;SDS011;65758;45.458;11.062;2024-03-08T13:52:11;5.10;;;4.00;;
76807;SDS011;65758;45.458;11.062;2024-03-08T13:54:41;3.00;;;2.70;;
76807;SDS011;65758;45.458;11.062;2024-03-08T13:57:08;5.10;;;3.50;;
76807;SDS011;65758;45.458;11.062;2024-03-08T14:04:02;4.00;;;3.40;;
76807;SDS011;65758;45.458;11.062;2024-03-08T14:06:30;5.00;;;3.80;;
76807;SDS011;65758;45.458;11.062;2024-03-08T14:08:57;3.70;;;3.10;;
76807;SDS011;65758;45.458;11.062;2024-03-08T14:11:24;4.50;;;3.50;;
76807;SDS011;65758;45.458;11.062;2024-03-08T14:13:51;4.40;;;3.10;;
76807;SDS011;65758;45.458;11.062;2024-03-08T14:16:18;3.80;;;3.00;;
76807;SDS011;65758;45.458;11.062;2024-03-08T14:18:46;4.30;;;3.70;;
76807;SDS011;65758;45.458;11.062;2024-03-08T14:21:13;7.40;;;3.80;;
76807;SDS011;65758;45.458;11.062;2024-03-08T14:23:42;3.80;;;3.40;;
76807;SDS011;65758;45.458;11.062;2024-03-08T14:26:09;4.50;;;3.70;;
76807;SDS011;65758;45.458;11.062;2024-03-08T14:28:38;4.30;;;3.90;;
76807;SDS011;65758;45.458;11.062;2024-03-08T14:31:05;4.10;;;3.70;;
76807;SDS011;65758;45.458;11.062;2024-03-08T14:33:37;4.00;;;3.30;;
76807;SDS011;65758;45.458;11.062;2024-03-08T14:36:05;4.90;;;3.40;;
76807;SDS011;65758;45.458;11.062;2024-03-08T14:38:33;4.10;;;3.60;;
76807;SDS011;65758;45.458;11.062;2024-03-08T14:41:01;4.00;;;3.10;;
76807;SDS011;65758;45.458;11.062;2024-03-08T14:43:31;4.40;;;3.00;;
76807;SDS011;65758;45.458;11.062;2024-03-08T14:45:58;4.60;;;4.10;;
76807;SDS011;65758;45.458;11.062;2024-03-08T14:48:26;3.50;;;3.20;;
76807;SDS011;65758;45.458;11.062;2024-03-08T14:50:52;5.00;;;3.70;;
76807;SDS011;65758;45.458;11.062;2024-03-08T14:53:19;5.20;;;3.90;;
76807;SDS011;65758;45.458;11.062;2024-03-08T14:55:46;5.00;;;4.10;;
76807;SDS011;65758;45.458;11.062;2024-03-08T14:58:14;6.10;;;3.90;;
76807;SDS011;65758;45.458;11.062;2024-03-08T15:00:42;6.90;;;4.80;;
76807;SDS011;65758;45.458;11.062;2024-03-08T15:03:10;5.40;;;3.80;;
76807;SDS011;65758;45.458;11.062;2024-03-08T15:09:55;5.00;;;4.10;;
76807;SDS011;65758;45.458;11.062;2024-03-08T15:12:23;5.30;;;4.10;;
76807;SDS011;65758;45.458;11.062;2024-03-08T15:14:53;6.60;;;4.70;;
76807;SDS011;65758;45.458;11.062;2024-03-08T15:17:22;5.40;;;3.90;;
76807;SDS011;65758;45.458;11.062;2024-03-08T15:19:49;5.30;;;4.60;;
76807;SDS011;65758;45.458;11.062;2024-03-08T15:22:18;5.50;;;4.10;;
76807;SDS011;65758;45.458;11.062;2024-03-08T15:24:45;5.40;;;4.30;;
76807;SDS011;65758;45.458;11.062;2024-03-08T15:27:12;6.00;;;4.50;;
76807;SDS011;65758;45.458;11.062;2024-03-08T15:29:39;6.50;;;4.70;;
76807;SDS011;65758;45.458;11.062;2024-03-08T15:32:06;5.80;;;5.10;;
76807;SDS011;65758;45.458;11.062;2024-03-08T15:39:04;6.10;;;4.70;;
76807;SDS011;65758;45.458;11.062;2024-03-08T15:41:37;8.60;;;4.90;;
76807;SDS011;65758;45.458;11.062;2024-03-08T15:44:04;5.80;;;4.40;;
76807;SDS011;65758;45.458;11.062;2024-03-08T15:50:51;5.10;;;4.10;;
76807;SDS011;65758;45.458;11.062;2024-03-08T15:53:18;5.90;;;4.70;;
76807;SDS011;65758;45.458;11.062;2024-03-08T15:55:45;5.30;;;4.40;;
76807;SDS011;65758;45.458;11.062;2024-03-08T15:58:13;5.90;;;4.40;;
76807;SDS011;65758;45.458;11.062;2024-03-08T16:00:41;4.30;;;3.40;;
76807;SDS011;65758;45.458;11.062;2024-03-08T16:03:14;6.10;;;4.70;;
76807;SDS011;65758;45.458;11.062;2024-03-08T16:05:42;8.20;;;4.50;;
76807;SDS011;65758;45.458;11.062;2024-03-08T16:08:14;7.20;;;5.00;;
76807;SDS011;65758;45.458;11.062;2024-03-08T16:10:42;6.10;;;4.50;;
76807;SDS011;65758;45.458;11.062;2024-03-08T16:13:13;5.30;;;4.50;;
76807;SDS011;65758;45.458;11.062;2024-03-08T16:15:43;7.00;;;4.80;;
76807;SDS011;65758;45.458;11.062;2024-03-08T16:18:14;6.00;;;4.70;;
76807;SDS011;65758;45.458;11.062;2024-03-08T16:20:42;8.00;;;4.50;;
76807;SDS011;65758;45.458;11.062;2024-03-08T16:23:15;6.50;;;4.50;;
76807;SDS011;65758;45.458;11.062;2024-03-08T16:25:43;4.90;;;3.60;;
76807;SDS011;65758;45.458;11.062;2024-03-08T16:28:11;6.50;;;4.90;;
76807;SDS011;65758;45.458;11.062;2024-03-08T16:30:43;6.10;;;3.80;;
76807;SDS011;65758;45.458;11.062;2024-03-08T16:33:21;7.90;;;5.40;;
76807;SDS011;65758;45.458;11.062;2024-03-08T16:35:49;6.20;;;5.00;;
76807;SDS011;65758;45.458;11.062;2024-03-08T16:38:18;6.90;;;4.00;;
76807;SDS011;65758;45.458;11.062;2024-03-08T16:40:46;7.10;;;5.20;;
76807;SDS011;65758;45.458;11.062;2024-03-08T16:43:19;6.70;;;5.10;;
76807;SDS011;65758;45.458;11.062;2024-03-08T16:45:47;5.90;;;5.00;;
76807;SDS011;65758;45.458;11.062;2024-03-08T16:48:14;7.80;;;4.80;;
76807;SDS011;65758;45.458;11.062;2024-03-08T16:50:42;8.00;;;5.70;;
76807;SDS011;65758;45.458;11.062;2024-03-08T16:53:12;6.40;;;5.10;;
76807;SDS011;65758;45.458;11.062;2024-03-08T16:55:39;6.10;;;4.90;;
76807;SDS011;65758;45.458;11.062;2024-03-08T17:02:33;6.00;;;3.80;;
76807;SDS011;65758;45.458;11.062;2024-03-08T17:09:14;3.90;;;2.90;;
76807;SDS011;65758;45.458;11.062;2024-03-08T17:11:41;7.50;;;4.70;;
76807;SDS011;65758;45.458;11.062;2024-03-08T17:18:21;9.40;;;4.90;;
76807;SDS011;65758;45.458;11.062;2024-03-08T17:20:49;7.90;;;5.40;;
76807;SDS011;65758;45.458;11.062;2024-03-08T17:23:16;6.40;;;4.30;;
76807;SDS011;65758;45.458;11.062;2024-03-08T17:25:44;6.00;;;3.40;;
76807;SDS011;65758;45.458;11.062;2024-03-08T17:28:13;7.50;;;5.10;;
76807;SDS011;65758;45.458;11.062;2024-03-08T17:30:42;5.10;;;3.80;;
76807;SDS011;65758;45.458;11.062;2024-03-08T17:33:12;5.50;;;4.40;;
76807;SDS011;65758;45.458;11.062;2024-03-08T17:35:42;7.10;;;4.20;;